HTZA/ZNZ METAR and TAF weather

Enter ICAO airport designator
Station Type Date Time Source
HTZA METAR 2021/04/12 03:00 UTC NOAA

HTZA 120300Z 23012KT 9999 SCT012 BKN080 25/23 Q1012 NOSIG


Station Type Date Time Source
HTZA Decoded METAR 2021/04/12 03:00 UTC NOAA

Zanzibar / Kisauni, Tanzania (HTZA) 06-13S 039-13E 15M
Apr 11, 2021 - 11:00 PM EDT / 2021.04.12 0300 UTC
Wind: from the SW (230 degrees) at 14 MPH (12 KT):0
Visibility: greater than 7 mile(s):0
Sky conditions: mostly cloudy
Temperature: 77 F (25 C)
Dew Point: 73 F (23 C)
Relative Humidity: 88%
Pressure (altimeter): 29.88 in. Hg (1012 hPa)
ob: HTZA 120300Z 23012KT 9999 SCT012 BKN080 25/23 Q1012 NOSIG
cycle: 3

Station Type Date Time Source
HTZA TAF 2021/04/12 00:33 UTC NOAA

HTZA 112300Z 1200/1224 21010KT 5000 TSRA BKN014 FEW016CB
BECMG 1214/1216 9999 SCT016 FEW018CB BKN070
BECMG 1218/1220 17015KT

Example: see airport list